createdAt,value
2024-02-27T00:00:53.931Z,97144.00
2024-02-27T00:04:55.299Z,97138.00
2024-02-27T00:08:59.917Z,97142.00
2024-02-27T00:13:02.699Z,97140.00
2024-02-27T00:17:04.737Z,97135.00
2024-02-27T00:21:05.845Z,97146.00
2024-02-27T00:25:08.208Z,97157.00
2024-02-27T00:29:09.358Z,97158.00
2024-02-27T00:33:10.584Z,97154.00
2024-02-27T00:37:11.771Z,97168.00
2024-02-27T00:41:12.941Z,97178.00
2024-02-27T00:45:14.056Z,97183.00
2024-02-27T00:49:15.245Z,97183.00
2024-02-27T00:53:17.578Z,97195.00
2024-02-27T00:57:18.873Z,97199.00
2024-02-27T01:01:20.164Z,97198.00
2024-02-27T01:05:21.567Z,97201.00
2024-02-27T01:09:22.785Z,97223.00
2024-02-27T01:13:23.888Z,97212.00
2024-02-27T01:17:24.891Z,97215.00
2024-02-27T01:21:25.913Z,97216.00
2024-02-27T01:25:26.930Z,97209.00
2024-02-27T01:29:28.289Z,97212.00
2024-02-27T01:33:30.527Z,97211.00
2024-02-27T01:37:31.760Z,97194.00
2024-02-27T01:41:32.971Z,97192.00
2024-02-27T01:45:34.141Z,97195.00
2024-02-27T01:49:35.352Z,97209.00
2024-02-27T01:53:38.929Z,97219.00
2024-02-27T01:57:41.386Z,97218.00
2024-02-27T02:01:43.818Z,97216.00
2024-02-27T02:05:46.003Z,97213.00
2024-02-27T02:09:47.229Z,97214.00
2024-02-27T02:13:48.229Z,97214.00
2024-02-27T02:17:51.994Z,97218.00
2024-02-27T02:21:55.192Z,97199.00
2024-02-27T02:25:58.951Z,97205.00
2024-02-27T02:30:00.542Z,97201.00
2024-02-27T02:34:01.832Z,97220.00
2024-02-27T02:38:03.920Z,97206.00
2024-02-27T02:42:05.396Z,97209.00
2024-02-27T02:46:06.488Z,97212.00
2024-02-27T02:50:08.507Z,97238.00
2024-02-27T02:54:09.732Z,97213.00
2024-02-27T02:58:10.959Z,97231.00
2024-02-27T03:02:12.414Z,97226.00
2024-02-27T03:06:13.702Z,97232.00
2024-02-27T03:10:14.956Z,97236.00
2024-02-27T03:14:19.200Z,97238.00
2024-02-27T03:18:20.498Z,97252.00
2024-02-27T03:22:21.684Z,97241.00
2024-02-27T03:26:22.698Z,97263.00
2024-02-27T03:30:23.842Z,97260.00
2024-02-27T03:34:26.708Z,97248.00
2024-02-27T03:38:27.741Z,97245.00
2024-02-27T03:42:28.830Z,97262.00
2024-02-27T03:46:29.858Z,97273.00
2024-02-27T03:50:30.860Z,97290.00
2024-02-27T03:54:31.936Z,97303.00
2024-02-27T03:58:35.593Z,97296.00
2024-02-27T04:02:36.852Z,97296.00
2024-02-27T04:06:38.091Z,97285.00
2024-02-27T04:10:39.082Z,97298.00
2024-02-27T04:14:40.070Z,97295.00
2024-02-27T04:18:41.440Z,97296.00
2024-02-27T04:22:42.518Z,97294.00
2024-02-27T04:26:43.655Z,97325.00
2024-02-27T04:30:44.733Z,97309.00
2024-02-27T04:34:46.035Z,97316.00
2024-02-27T04:38:47.499Z,97320.00
2024-02-27T04:42:48.707Z,97334.00
2024-02-27T04:46:49.716Z,97328.00
2024-02-27T04:50:50.810Z,97326.00
2024-02-27T04:54:52.060Z,97326.00
2024-02-27T04:58:53.195Z,97335.00
2024-02-27T05:02:54.359Z,97339.00
2024-02-27T05:06:55.812Z,97339.00
2024-02-27T05:10:56.968Z,97340.00
2024-02-27T05:14:58.373Z,97347.00
2024-02-27T05:18:59.847Z,97357.00
2024-02-27T05:23:01.519Z,97273.00
2024-02-27T05:27:02.585Z,97383.00
2024-02-27T05:31:07.673Z,97365.00
2024-02-27T05:35:09.266Z,97378.00
2024-02-27T05:39:10.388Z,97380.00
2024-02-27T05:43:11.599Z,97372.00
2024-02-27T05:47:12.625Z,97378.00
2024-02-27T05:51:13.708Z,97392.00
2024-02-27T05:55:15.025Z,97390.00
2024-02-27T05:59:16.169Z,97418.00
2024-02-27T06:03:18.719Z,97412.00
2024-02-27T06:07:20.293Z,97442.00
2024-02-27T06:11:21.511Z,97419.00
2024-02-27T06:15:22.637Z,97430.00
2024-02-27T06:19:27.629Z,97434.00
2024-02-27T06:23:29.301Z,97448.00
2024-02-27T06:27:30.333Z,97442.00
2024-02-27T06:31:31.877Z,97454.00
2024-02-27T06:35:32.942Z,97468.00
2024-02-27T06:39:34.062Z,97471.00
2024-02-27T06:43:35.556Z,97476.00
2024-02-27T06:47:43.749Z,97475.00
2024-02-27T06:51:46.713Z,97477.00
2024-02-27T06:55:48.703Z,97479.00
2024-02-27T06:59:49.837Z,97481.00
2024-02-27T07:03:51.379Z,97493.00
2024-02-27T07:07:52.673Z,97485.00
2024-02-27T07:11:53.988Z,97495.00
2024-02-27T07:15:55.461Z,97499.00
2024-02-27T07:19:58.120Z,97509.00
2024-02-27T07:23:59.308Z,97523.00
2024-02-27T07:28:00.301Z,97527.00
2024-02-27T07:32:01.879Z,97527.00
2024-02-27T07:36:03.391Z,97545.00
2024-02-27T07:40:05.141Z,97533.00
2024-02-27T07:44:07.120Z,97528.00
2024-02-27T07:48:08.504Z,97546.00
2024-02-27T07:52:09.924Z,97549.00
2024-02-27T07:56:11.003Z,97562.00
2024-02-27T08:00:13.619Z,97544.00
2024-02-27T08:04:14.960Z,97551.00
2024-02-27T08:08:16.745Z,97550.00
2024-02-27T08:12:17.901Z,97543.00
2024-02-27T08:16:19.581Z,97544.00
2024-02-27T08:20:20.622Z,97544.00
2024-02-27T08:24:21.857Z,97546.00
2024-02-27T08:28:23.064Z,97549.00
2024-02-27T08:32:25.079Z,97549.00
2024-02-27T08:36:27.693Z,97546.00
2024-02-27T08:40:28.880Z,97542.00
2024-02-27T08:44:29.910Z,97549.00
2024-02-27T08:48:31.056Z,97543.00
2024-02-27T08:52:32.964Z,97549.00
2024-02-27T08:56:35.400Z,97550.00
2024-02-27T09:00:37.077Z,97551.00
2024-02-27T09:04:38.576Z,97556.00
2024-02-27T09:08:39.905Z,97551.00
2024-02-27T09:12:42.053Z,97549.00
2024-02-27T09:16:43.427Z,97551.00
2024-02-27T09:20:44.681Z,97557.00
2024-02-27T09:24:46.191Z,97548.00
2024-02-27T09:28:47.575Z,97547.00
2024-02-27T09:32:54.059Z,97552.00
2024-02-27T09:36:55.088Z,97550.00
2024-02-27T09:40:59.938Z,97539.00
2024-02-27T09:45:08.545Z,97533.00
2024-02-27T09:49:18.788Z,97541.00
2024-02-27T09:53:17.797Z,97530.00
2024-02-27T09:57:19.051Z,97533.00
2024-02-27T10:01:22.716Z,97541.00
2024-02-27T10:05:24.546Z,97535.00
2024-02-27T10:09:28.462Z,97533.00
2024-02-27T10:13:29.554Z,97474.00
2024-02-27T10:17:32.601Z,97563.00
2024-02-27T10:21:33.811Z,97565.00
2024-02-27T10:25:35.101Z,97569.00
2024-02-27T10:29:36.484Z,97572.00
2024-02-27T10:33:44.252Z,97564.00
2024-02-27T10:37:46.331Z,97573.00
2024-02-27T10:41:47.588Z,97568.00
2024-02-27T10:45:49.289Z,97565.00
2024-02-27T10:49:50.533Z,97590.00
2024-02-27T10:53:54.280Z,97586.00
2024-02-27T10:57:57.444Z,97583.00
2024-02-27T11:02:01.403Z,97598.00
2024-02-27T11:06:04.091Z,97599.00
2024-02-27T11:10:07.357Z,97430.00
2024-02-27T11:14:10.578Z,97603.00
2024-02-27T11:18:15.539Z,97605.00
2024-02-27T11:22:20.278Z,97609.00
2024-02-27T11:26:22.225Z,97606.00
2024-02-27T11:30:25.277Z,97593.00
2024-02-27T11:34:26.413Z,97594.00
2024-02-27T11:38:31.319Z,97589.00
2024-02-27T11:42:39.108Z,97589.00
2024-02-27T11:46:41.901Z,97597.00
2024-02-27T11:50:46.150Z,97592.00
2024-02-27T11:54:47.270Z,97580.00
2024-02-27T11:58:48.712Z,97569.00
2024-02-27T12:02:50.750Z,97582.00
2024-02-27T12:06:52.279Z,97583.00
2024-02-27T12:10:53.758Z,97579.00
2024-02-27T12:14:55.152Z,97598.00
2024-02-27T12:18:57.590Z,97583.00
2024-02-27T12:22:58.792Z,97578.00
2024-02-27T12:27:00.030Z,97576.00
2024-02-27T12:31:02.677Z,97564.00
2024-02-27T12:35:07.057Z,97563.00
2024-02-27T12:39:08.810Z,97566.00
2024-02-27T12:43:10.288Z,97576.00
2024-02-27T12:47:12.173Z,97566.00
2024-02-27T12:51:15.346Z,97578.00
2024-02-27T12:55:19.712Z,97547.00
2024-02-27T12:59:25.719Z,97549.00
2024-02-27T13:03:27.377Z,97552.00
2024-02-27T13:07:29.193Z,97551.00
2024-02-27T13:11:30.334Z,97551.00
2024-02-27T13:15:31.444Z,97554.00
2024-02-27T13:19:32.956Z,97543.00
2024-02-27T13:23:34.924Z,97545.00
2024-02-27T13:27:36.200Z,97518.00
2024-02-27T13:31:37.843Z,97562.00
2024-02-27T13:35:39.802Z,97549.00
2024-02-27T13:39:40.936Z,97544.00
2024-02-27T13:43:42.163Z,97554.00
2024-02-27T13:47:43.681Z,97551.00
2024-02-27T13:51:45.015Z,97531.00
2024-02-27T13:55:46.277Z,97528.00
2024-02-27T13:59:47.277Z,97533.00
2024-02-27T14:03:48.650Z,97546.00
2024-02-27T14:07:52.000Z,97538.00
2024-02-27T14:11:53.401Z,97534.00
2024-02-27T14:15:54.749Z,97528.00
2024-02-27T14:19:56.332Z,97536.00
2024-02-27T14:23:57.656Z,97546.00
2024-02-27T14:27:58.796Z,97538.00
2024-02-27T14:32:01.890Z,97552.00
2024-02-27T14:36:03.940Z,97547.00
2024-02-27T14:40:06.066Z,97543.00
2024-02-27T14:44:09.300Z,97554.00
2024-02-27T14:48:10.499Z,97554.00
2024-02-27T14:52:11.781Z,97550.00
2024-02-27T14:56:12.983Z,97555.00
2024-02-27T15:00:16.571Z,97551.00
2024-02-27T15:04:17.796Z,97565.00
2024-02-27T15:08:18.973Z,97568.00
2024-02-27T15:12:22.832Z,97556.00
2024-02-27T15:16:24.766Z,97556.00
2024-02-27T15:20:25.791Z,97559.00
2024-02-27T15:24:27.373Z,97565.00
2024-02-27T15:28:28.866Z,97565.00
2024-02-27T15:32:29.960Z,97572.00
2024-02-27T15:36:31.298Z,97560.00
2024-02-27T15:40:32.409Z,97569.00
2024-02-27T15:44:36.229Z,97570.00
2024-02-27T15:48:38.506Z,97570.00
2024-02-27T15:52:39.848Z,97568.00
2024-02-27T15:56:41.264Z,97564.00
2024-02-27T16:00:42.768Z,97560.00
2024-02-27T16:04:54.287Z,97571.00
2024-02-27T16:08:55.578Z,97575.00
2024-02-27T16:12:56.998Z,97563.00
2024-02-27T16:16:58.272Z,97566.00
2024-02-27T16:20:59.313Z,97573.00
2024-02-27T16:25:00.594Z,97577.00
2024-02-27T16:29:04.781Z,97578.00
2024-02-27T16:33:05.961Z,97587.00
2024-02-27T16:37:07.540Z,97602.00
2024-02-27T16:41:08.818Z,97600.00
2024-02-27T16:45:10.311Z,97613.00
2024-02-27T16:49:11.474Z,97631.00
2024-02-27T16:53:12.494Z,97636.00
2024-02-27T16:57:13.522Z,97647.00
2024-02-27T17:01:14.774Z,97657.00
2024-02-27T17:05:16.406Z,97663.00
2024-02-27T17:09:19.392Z,97671.00
2024-02-27T17:13:20.429Z,97674.00
2024-02-27T17:17:21.552Z,97681.00
2024-02-27T17:21:22.618Z,97682.00
2024-02-27T17:25:25.134Z,97696.00
2024-02-27T17:29:26.445Z,97696.00
2024-02-27T17:33:27.758Z,97705.00
2024-02-27T17:37:29.002Z,97708.00
2024-02-27T17:41:30.087Z,97714.00
2024-02-27T17:45:31.331Z,97712.00
2024-02-27T17:49:34.087Z,97726.00
2024-02-27T17:53:35.897Z,97734.00
2024-02-27T17:57:37.605Z,97740.00
2024-02-27T18:01:38.765Z,97738.00
2024-02-27T18:05:39.886Z,97745.00
2024-02-27T18:09:41.393Z,97742.00
2024-02-27T18:13:42.376Z,97742.00
2024-02-27T18:17:45.443Z,97741.00
2024-02-27T18:21:46.570Z,97745.00
2024-02-27T18:25:49.475Z,97726.00
2024-02-27T18:29:50.474Z,97752.00
2024-02-27T18:33:51.948Z,97752.00
2024-02-27T18:37:52.958Z,97742.00
2024-02-27T18:41:54.185Z,97752.00
2024-02-27T18:45:55.342Z,97757.00
2024-02-27T18:49:58.432Z,97768.00
2024-02-27T18:53:59.528Z,97770.00
2024-02-27T18:58:02.483Z,97766.00
2024-02-27T19:02:03.746Z,97776.00
2024-02-27T19:06:05.160Z,97787.00
2024-02-27T19:10:07.910Z,97795.00
2024-02-27T19:14:09.213Z,97791.00
2024-02-27T19:18:10.830Z,97794.00
2024-02-27T19:22:11.962Z,97798.00
2024-02-27T19:26:13.252Z,97801.00
2024-02-27T19:30:16.919Z,97800.00
2024-02-27T19:34:18.024Z,97809.00
2024-02-27T19:38:19.931Z,97810.00
2024-02-27T19:42:21.529Z,97808.00
2024-02-27T19:46:24.789Z,97804.00
2024-02-27T19:50:25.887Z,97803.00
2024-02-27T19:54:26.991Z,97811.00
2024-02-27T19:58:28.044Z,97822.00
2024-02-27T20:02:29.180Z,97819.00
2024-02-27T20:06:30.293Z,97825.00
2024-02-27T20:10:33.306Z,97832.00
2024-02-27T20:14:34.465Z,97833.00
2024-02-27T20:18:37.075Z,97822.00
2024-02-27T20:22:38.364Z,97818.00
2024-02-27T20:26:42.583Z,97812.00
2024-02-27T20:30:43.670Z,97814.00
2024-02-27T20:34:44.780Z,97821.00
2024-02-27T20:38:46.488Z,97819.00
2024-02-27T20:42:47.621Z,97827.00
2024-02-27T20:46:48.798Z,97829.00
2024-02-27T20:50:50.657Z,97852.00
2024-02-27T20:54:51.801Z,97844.00
2024-02-27T20:58:52.812Z,97854.00
2024-02-27T21:02:53.972Z,97850.00
2024-02-27T21:06:55.016Z,97858.00
2024-02-27T21:10:57.531Z,97856.00
2024-02-27T21:15:00.525Z,97866.00
2024-02-27T21:19:01.597Z,97869.00
2024-02-27T21:23:02.787Z,97868.00
2024-02-27T21:27:04.408Z,97880.00
2024-02-27T21:31:05.594Z,97627.00
2024-02-27T21:35:07.239Z,97878.00
2024-02-27T21:39:08.848Z,97884.00
2024-02-27T21:43:10.055Z,97875.00
2024-02-27T21:47:11.146Z,97876.00
2024-02-27T21:51:12.154Z,97873.00
2024-02-27T21:55:13.304Z,97876.00
2024-02-27T21:59:14.741Z,97878.00
2024-02-27T22:03:15.995Z,97879.00
2024-02-27T22:07:17.147Z,97881.00
2024-02-27T22:11:18.296Z,97889.00
2024-02-27T22:15:19.600Z,97892.00
2024-02-27T22:19:20.982Z,97759.00
2024-02-27T22:23:22.241Z,97903.00
2024-02-27T22:27:23.280Z,97908.00
2024-02-27T22:31:24.550Z,97902.00
2024-02-27T22:35:25.695Z,97909.00
2024-02-27T22:39:26.997Z,97912.00
2024-02-27T22:43:28.305Z,97911.00
2024-02-27T22:47:29.420Z,97900.00
2024-02-27T22:51:30.643Z,97890.00
2024-02-27T22:55:32.489Z,97904.00
2024-02-27T22:59:33.680Z,97901.00
2024-02-27T23:03:35.272Z,97894.00
2024-02-27T23:07:36.681Z,97903.00
2024-02-27T23:11:37.914Z,97897.00
2024-02-27T23:15:39.119Z,97898.00
2024-02-27T23:19:40.201Z,97908.00
2024-02-27T23:23:41.369Z,97907.00
2024-02-27T23:27:42.528Z,97903.00
2024-02-27T23:31:43.694Z,97904.00
2024-02-27T23:35:44.903Z,97915.00
2024-02-27T23:39:46.011Z,97916.00
2024-02-27T23:43:47.252Z,97921.00
2024-02-27T23:47:48.486Z,97922.00
2024-02-27T23:51:49.748Z,97936.00
2024-02-27T23:55:50.801Z,97946.00
2024-02-27T23:59:53.225Z,97941.00
